Terminal Aerodrome Forecast
Issued by NWS

Home | Current Version | Previous Version | Text Only | Print | Product List | Glossary On
Versions: 1 2 3 4 5 6 7 8 9 10 11 12 13 14 15 16 17
000
FTUS42 KTAE 302000 AAA
TAFABY
TAF AMD
KABY 302022Z 3020/3118 00000KT P6SM FEW060 SCT080
      TEMPO 3022/3024 3SM TSRA BKN050CB
     FM310000 19004KT P6SM SCT250
     FM311000 00000KT 4SM BR FEW004
     FM311500 15005KT P6SM SCT030 SCT250=

USA.gov is the U.S. government's official web portal to all federal, state and local government web resources and services.